createdAt,value
2023-01-20T00:02:23.064Z,27.56
2023-01-20T00:04:53.658Z,27.55
2023-01-20T00:07:25.007Z,27.60
2023-01-20T00:09:56.232Z,27.63
2023-01-20T00:12:27.119Z,27.63
2023-01-20T00:14:57.332Z,27.62
2023-01-20T00:17:29.962Z,27.62
2023-01-20T00:20:02.845Z,27.73
2023-01-20T00:22:33.659Z,27.77
2023-01-20T00:25:03.997Z,27.81
2023-01-20T00:27:34.502Z,27.85
2023-01-20T00:30:06.534Z,27.86
2023-01-20T00:32:45.731Z,27.95
2023-01-20T00:35:19.017Z,27.99
2023-01-20T00:37:49.897Z,27.96
2023-01-20T00:40:20.991Z,28.00
2023-01-20T00:42:51.356Z,28.09
2023-01-20T00:45:22.083Z,28.22
2023-01-20T00:47:52.579Z,28.34
2023-01-20T00:50:23.174Z,28.40
2023-01-20T00:52:53.668Z,28.47
2023-01-20T00:55:24.525Z,28.53
2023-01-20T00:57:55.141Z,28.50
2023-01-20T01:00:26.068Z,28.60
2023-01-20T01:02:57.219Z,28.59
2023-01-20T01:05:28.292Z,28.64
2023-01-20T01:07:58.982Z,28.65
2023-01-20T01:10:29.818Z,28.65
2023-01-20T01:13:06.243Z,28.65
2023-01-20T01:15:39.283Z,28.72
2023-01-20T01:18:09.563Z,28.77
2023-01-20T01:20:40.791Z,28.80
2023-01-20T01:23:11.382Z,28.83
2023-01-20T01:25:44.815Z,28.87
2023-01-20T01:28:15.329Z,28.87
2023-01-20T01:30:46.760Z,28.88
2023-01-20T01:33:17.409Z,28.89
2023-01-20T01:35:59.664Z,28.95
2023-01-20T01:38:30.687Z,28.94
2023-01-20T01:41:01.961Z,28.95
2023-01-20T01:43:35.514Z,28.97
2023-01-20T01:46:06.713Z,28.98
2023-01-20T01:48:46.237Z,29.02
2023-01-20T01:51:20.956Z,29.03
2023-01-20T01:53:58.649Z,29.02
2023-01-20T01:56:31.356Z,29.03
2023-01-20T01:59:03.212Z,29.03
2023-01-20T02:01:38.328Z,29.04
2023-01-20T02:04:27.367Z,29.06
2023-01-20T02:07:10.819Z,29.01
2023-01-20T02:09:41.666Z,29.06
2023-01-20T02:12:15.629Z,29.08
2023-01-20T02:14:52.189Z,29.11
2023-01-20T02:17:32.827Z,29.08
2023-01-20T02:20:15.755Z,29.14
2023-01-20T02:23:15.344Z,29.12
2023-01-20T02:26:10.862Z,29.16
2023-01-20T02:29:04.010Z,29.20
2023-01-20T02:31:55.026Z,29.22
2023-01-20T02:34:34.627Z,29.24
2023-01-20T02:37:11.990Z,29.23
2023-01-20T02:39:46.393Z,29.26
2023-01-20T02:42:47.388Z,29.29
2023-01-20T02:45:25.710Z,29.35
2023-01-20T02:48:03.449Z,29.35
2023-01-20T02:50:42.288Z,29.42
2023-01-20T02:53:14.728Z,29.42
2023-01-20T02:55:48.779Z,29.43
2023-01-20T02:58:29.025Z,29.45
2023-01-20T03:01:16.227Z,29.49
2023-01-20T03:03:48.826Z,29.48
2023-01-20T03:06:22.788Z,29.50
2023-01-20T03:08:54.911Z,29.46
2023-01-20T03:11:26.023Z,29.51
2023-01-20T03:14:24.522Z,29.58
2023-01-20T03:16:55.322Z,29.57
2023-01-20T03:19:25.734Z,29.68
2023-01-20T03:21:56.525Z,29.78
2023-01-20T03:24:29.125Z,29.84
2023-01-20T03:27:00.400Z,29.90
2023-01-20T03:29:31.622Z,29.95
2023-01-20T03:32:04.083Z,29.97
2023-01-20T03:34:37.219Z,29.96
2023-01-20T03:37:08.653Z,30.01
2023-01-20T03:39:40.828Z,30.04
2023-01-20T03:42:30.044Z,30.11
2023-01-20T03:45:50.999Z,30.23
2023-01-20T03:48:43.014Z,30.33
2023-01-20T03:51:22.876Z,30.31
2023-01-20T03:54:00.846Z,30.29
2023-01-20T03:56:51.171Z,30.13
2023-01-20T03:59:23.069Z,30.08
2023-01-20T04:01:53.660Z,30.13
2023-01-20T04:04:24.400Z,30.04
2023-01-20T04:06:55.445Z,30.03
2023-01-20T04:09:30.110Z,30.08
2023-01-20T04:12:01.152Z,30.09
2023-01-20T04:14:31.727Z,30.11
2023-01-20T04:17:02.393Z,30.07
2023-01-20T04:19:33.277Z,29.97
2023-01-20T04:22:16.045Z,29.88
2023-01-20T04:24:51.996Z,29.87
2023-01-20T04:27:40.092Z,29.85
2023-01-20T04:30:12.075Z,29.89
2023-01-20T04:32:43.004Z,29.85
2023-01-20T04:35:17.226Z,29.89
2023-01-20T04:37:50.698Z,29.95
2023-01-20T04:40:21.233Z,29.96
2023-01-20T04:42:52.651Z,30.11
2023-01-20T04:45:23.846Z,30.17
2023-01-20T04:47:54.256Z,30.22
2023-01-20T04:50:24.863Z,30.23
2023-01-20T04:53:00.674Z,30.29
2023-01-20T04:55:31.401Z,30.28
2023-01-20T04:58:02.178Z,30.32
2023-01-20T05:00:32.533Z,30.39
2023-01-20T05:03:03.884Z,30.39
2023-01-20T05:05:35.110Z,30.43
2023-01-20T05:08:05.925Z,30.43
2023-01-20T05:10:37.252Z,30.50
2023-01-20T05:13:07.987Z,30.55
2023-01-20T05:15:38.825Z,30.53
2023-01-20T05:18:09.113Z,30.57
2023-01-20T05:20:39.659Z,30.63
2023-01-20T05:23:10.325Z,30.76
2023-01-20T05:25:41.008Z,30.77
2023-01-20T05:28:11.270Z,30.81
2023-01-20T05:30:41.849Z,30.82
2023-01-20T05:33:13.819Z,30.93
2023-01-20T05:35:44.262Z,31.06
2023-01-20T05:38:14.869Z,31.26
2023-01-20T05:40:45.129Z,31.34
2023-01-20T05:43:15.842Z,31.49
2023-01-20T05:45:47.619Z,31.55
2023-01-20T05:48:18.034Z,31.64
2023-01-20T05:50:49.147Z,31.71
2023-01-20T05:53:20.364Z,31.77
2023-01-20T05:55:51.111Z,31.72
2023-01-20T05:58:23.686Z,31.58
2023-01-20T06:00:54.909Z,31.53
2023-01-20T06:03:25.545Z,31.62
2023-01-20T06:06:02.487Z,31.62
2023-01-20T06:08:33.531Z,31.57
2023-01-20T06:11:03.799Z,31.58
2023-01-20T06:13:36.330Z,31.72
2023-01-20T06:16:07.516Z,31.74
2023-01-20T06:18:38.246Z,31.84
2023-01-20T06:21:08.584Z,31.96
2023-01-20T06:23:38.922Z,32.02
2023-01-20T06:26:12.773Z,32.01
2023-01-20T06:28:43.597Z,32.00
2023-01-20T06:31:16.811Z,32.00
2023-01-20T06:33:47.748Z,32.05
2023-01-20T06:36:18.664Z,32.04
2023-01-20T06:38:52.070Z,32.10
2023-01-20T06:41:23.121Z,32.25
2023-01-20T06:43:56.774Z,32.41
2023-01-20T06:46:27.502Z,32.51
2023-01-20T06:49:02.539Z,32.59
2023-01-20T06:51:35.192Z,32.50
2023-01-20T06:54:05.690Z,32.39
2023-01-20T06:56:35.963Z,32.20
2023-01-20T06:59:06.641Z,32.16
2023-01-20T07:01:37.394Z,32.07
2023-01-20T07:04:09.210Z,31.95
2023-01-20T07:06:41.174Z,31.89
2023-01-20T07:09:13.690Z,31.80
2023-01-20T07:11:44.366Z,31.81
2023-01-20T07:14:14.689Z,31.78
2023-01-20T07:16:45.560Z,31.79
2023-01-20T07:19:16.746Z,31.75
2023-01-20T07:21:47.315Z,31.72
2023-01-20T07:24:18.889Z,31.69
2023-01-20T07:26:49.527Z,31.62
2023-01-20T07:29:19.868Z,31.53
2023-01-20T07:31:51.063Z,31.43
2023-01-20T07:34:21.728Z,31.38
2023-01-20T07:36:54.464Z,31.32
2023-01-20T07:39:30.254Z,31.21
2023-01-20T07:42:01.070Z,31.20
2023-01-20T07:44:34.127Z,31.23
2023-01-20T07:47:04.723Z,31.27
2023-01-20T07:49:35.863Z,31.23
2023-01-20T07:52:06.209Z,31.26
2023-01-20T07:54:36.804Z,31.23
2023-01-20T07:57:09.740Z,31.18
2023-01-20T07:59:40.284Z,31.15
2023-01-20T08:02:11.508Z,31.15
2023-01-20T08:04:42.553Z,31.12
2023-01-20T08:07:13.071Z,31.08
2023-01-20T08:09:44.887Z,31.03
2023-01-20T08:12:15.181Z,31.02
2023-01-20T08:14:46.044Z,30.98
2023-01-20T08:17:16.601Z,30.99
2023-01-20T08:19:47.273Z,30.94
2023-01-20T08:22:17.890Z,30.92
2023-01-20T08:24:49.237Z,30.89
2023-01-20T08:27:20.784Z,30.90
2023-01-20T08:29:51.797Z,30.87
2023-01-20T08:32:23.149Z,30.87
2023-01-20T08:34:53.712Z,30.86
2023-01-20T08:37:24.701Z,30.84
2023-01-20T08:39:55.540Z,30.82
2023-01-20T08:42:26.012Z,30.80
2023-01-20T08:44:56.676Z,30.75
2023-01-20T08:47:27.841Z,30.75
2023-01-20T08:49:58.357Z,30.73
2023-01-20T08:52:29.586Z,30.70
2023-01-20T08:55:00.360Z,30.68
2023-01-20T08:57:31.026Z,30.64
2023-01-20T09:00:01.607Z,30.63
2023-01-20T09:02:33.359Z,30.58
2023-01-20T09:05:06.088Z,30.58
2023-01-20T09:07:37.107Z,30.54
2023-01-20T09:10:08.411Z,30.53
2023-01-20T09:12:39.334Z,30.52
2023-01-20T09:15:11.147Z,30.45
2023-01-20T09:17:41.794Z,30.46
2023-01-20T09:20:12.892Z,30.44
2023-01-20T09:22:43.501Z,30.41
2023-01-20T09:25:14.214Z,30.43
2023-01-20T09:27:46.960Z,30.43
2023-01-20T09:30:18.176Z,30.39
2023-01-20T09:32:54.163Z,30.40
2023-01-20T09:35:24.890Z,30.35
2023-01-20T09:38:14.080Z,30.33
2023-01-20T09:41:30.869Z,30.31
2023-01-20T09:44:16.793Z,30.29
2023-01-20T09:47:20.724Z,30.24
2023-01-20T09:50:18.591Z,30.21
2023-01-20T09:53:05.746Z,30.18
2023-01-20T09:55:44.811Z,30.16
2023-01-20T09:58:46.172Z,30.18
2023-01-20T10:01:25.330Z,30.14
2023-01-20T10:04:14.802Z,30.14
2023-01-20T10:07:46.433Z,30.12
2023-01-20T10:10:21.680Z,30.03
2023-01-20T10:12:57.498Z,29.99
2023-01-20T10:15:33.611Z,29.97
2023-01-20T10:18:17.493Z,29.96
2023-01-20T10:21:13.561Z,29.97
2023-01-20T10:23:57.860Z,29.91
2023-01-20T10:26:28.447Z,29.90
2023-01-20T10:29:02.335Z,29.86
2023-01-20T10:31:40.199Z,29.90
2023-01-20T10:34:14.507Z,29.87
2023-01-20T10:36:47.497Z,29.82
2023-01-20T10:39:36.699Z,29.84
2023-01-20T10:42:14.217Z,29.81
2023-01-20T10:44:47.523Z,29.78
2023-01-20T10:47:48.506Z,29.75
2023-01-20T10:50:33.461Z,29.69
2023-01-20T10:53:13.478Z,29.66
2023-01-20T10:56:13.597Z,29.67
2023-01-20T10:58:46.211Z,29.62
2023-01-20T11:01:20.778Z,29.64
2023-01-20T11:03:51.145Z,29.58
2023-01-20T11:06:26.195Z,29.61
2023-01-20T11:08:57.388Z,29.60
2023-01-20T11:11:30.406Z,29.59
2023-01-20T11:14:05.086Z,29.62
2023-01-20T11:16:37.045Z,29.64
2023-01-20T11:19:10.878Z,29.60
2023-01-20T11:21:42.500Z,29.60
2023-01-20T11:24:33.533Z,29.60
2023-01-20T11:27:08.675Z,29.56
2023-01-20T11:29:44.844Z,29.55
2023-01-20T11:32:36.744Z,29.58
2023-01-20T11:35:26.020Z,29.58
2023-01-20T11:37:58.688Z,29.52
2023-01-20T11:40:30.279Z,29.48
2023-01-20T11:43:00.892Z,29.47
2023-01-20T11:45:35.516Z,29.49
2023-01-20T11:48:16.481Z,29.42
2023-01-20T11:50:59.451Z,29.47
2023-01-20T11:53:33.156Z,29.45
2023-01-20T11:56:20.267Z,29.49
2023-01-20T11:59:02.882Z,29.46
2023-01-20T12:02:17.091Z,29.45
2023-01-20T12:05:05.617Z,29.40
2023-01-20T12:07:39.085Z,29.38
2023-01-20T12:10:22.329Z,29.40
2023-01-20T12:12:54.245Z,29.36
2023-01-20T12:15:30.836Z,29.33
2023-01-20T12:18:12.644Z,29.38
2023-01-20T12:20:55.482Z,29.39
2023-01-20T12:23:46.675Z,29.45
2023-01-20T12:26:20.195Z,29.44
2023-01-20T12:29:19.186Z,29.49
2023-01-20T12:31:50.478Z,29.42
2023-01-20T12:34:29.337Z,29.44
2023-01-20T12:37:39.836Z,29.47
2023-01-20T12:40:21.909Z,29.49
2023-01-20T12:43:38.232Z,29.48
2023-01-20T12:46:11.812Z,29.43
2023-01-20T12:48:50.913Z,29.42
2023-01-20T12:51:36.957Z,29.43
2023-01-20T12:54:55.354Z,29.44
2023-01-20T12:57:58.874Z,29.42
2023-01-20T13:00:43.644Z,29.42
2023-01-20T13:03:32.723Z,29.36
2023-01-20T13:06:29.037Z,29.37
2023-01-20T13:09:30.102Z,29.23
2023-01-20T13:12:06.002Z,29.36
2023-01-20T13:14:49.221Z,29.33
2023-01-20T13:17:26.815Z,29.38
2023-01-20T13:19:59.982Z,29.35
2023-01-20T13:22:31.244Z,29.31
2023-01-20T13:25:05.741Z,29.30
2023-01-20T13:27:38.097Z,29.26
2023-01-20T13:30:12.451Z,29.25
2023-01-20T13:32:46.645Z,29.24
2023-01-20T13:35:28.546Z,29.26
2023-01-20T13:38:02.953Z,29.25
2023-01-20T13:40:39.887Z,29.26
2023-01-20T13:43:45.067Z,29.29
2023-01-20T13:46:18.043Z,29.22
2023-01-20T13:49:24.144Z,29.27
2023-01-20T13:51:55.064Z,29.20
2023-01-20T13:54:35.144Z,29.23
2023-01-20T13:57:35.482Z,29.24
2023-01-20T14:00:13.791Z,29.20
2023-01-20T14:02:44.669Z,29.17
2023-01-20T14:05:31.153Z,29.21
2023-01-20T14:08:02.116Z,29.18
2023-01-20T14:10:33.195Z,29.19
2023-01-20T14:13:14.077Z,29.20
2023-01-20T14:15:44.916Z,29.22
2023-01-20T14:18:17.553Z,29.19
2023-01-20T14:21:24.443Z,29.24
2023-01-20T14:23:58.471Z,29.19
2023-01-20T14:26:32.347Z,29.18
2023-01-20T14:29:04.286Z,29.16
2023-01-20T14:31:44.807Z,29.15
2023-01-20T14:34:34.590Z,29.18
2023-01-20T14:37:36.447Z,29.16
2023-01-20T14:40:27.099Z,29.17
2023-01-20T14:43:02.375Z,29.14
2023-01-20T14:45:34.805Z,29.13
2023-01-20T14:48:07.294Z,29.13
2023-01-20T14:50:39.638Z,29.15
2023-01-20T14:53:14.936Z,29.14
2023-01-20T14:56:00.500Z,29.16
2023-01-20T14:58:31.622Z,29.14
2023-01-20T15:01:05.241Z,29.11
2023-01-20T15:03:35.930Z,29.12
2023-01-20T15:06:12.125Z,29.09
2023-01-20T15:09:04.423Z,29.11
2023-01-20T15:11:37.441Z,29.10
2023-01-20T15:14:09.911Z,29.08
2023-01-20T15:16:48.215Z,29.08
2023-01-20T15:19:30.777Z,29.12
2023-01-20T15:22:22.733Z,29.13
2023-01-20T15:24:53.764Z,29.10
2023-01-20T15:27:34.948Z,29.10
2023-01-20T15:30:25.206Z,29.12
2023-01-20T15:32:57.029Z,29.08
2023-01-20T15:35:27.967Z,29.05
2023-01-20T15:37:59.131Z,29.05
2023-01-20T15:40:30.116Z,29.05
2023-01-20T15:43:00.240Z,29.02
2023-01-20T15:45:30.789Z,29.03
2023-01-20T15:48:01.367Z,29.02
2023-01-20T15:50:32.544Z,29.01
2023-01-20T15:53:04.394Z,29.02
2023-01-20T15:55:35.884Z,28.98
2023-01-20T15:58:24.425Z,28.99
2023-01-20T16:00:58.979Z,28.98
2023-01-20T16:03:30.254Z,28.98
2023-01-20T16:06:00.908Z,28.99
2023-01-20T16:08:39.203Z,29.03
2023-01-20T16:11:13.150Z,28.98
2023-01-20T16:13:44.064Z,28.85
2023-01-20T16:16:16.058Z,28.74
2023-01-20T16:18:47.210Z,28.71
2023-01-20T16:21:19.664Z,28.66
2023-01-20T16:23:50.814Z,28.66
2023-01-20T16:26:27.794Z,28.70
2023-01-20T16:28:59.196Z,28.67
2023-01-20T16:31:30.275Z,28.67
2023-01-20T16:34:00.991Z,28.64
2023-01-20T16:36:31.318Z,28.63
2023-01-20T16:39:02.183Z,28.61
2023-01-20T16:41:33.524Z,28.58
2023-01-20T16:44:04.356Z,28.57
2023-01-20T16:46:35.379Z,28.56
2023-01-20T16:49:09.164Z,28.54
2023-01-20T16:51:40.018Z,28.52
2023-01-20T16:54:12.143Z,28.54
2023-01-20T16:56:42.615Z,28.44
2023-01-20T16:59:13.252Z,28.42
2023-01-20T17:01:49.918Z,28.47
2023-01-20T17:04:20.493Z,28.43
2023-01-20T17:06:53.859Z,28.41
2023-01-20T17:09:24.099Z,28.40
2023-01-20T17:11:54.624Z,28.37
2023-01-20T17:14:27.292Z,28.38
2023-01-20T17:17:00.894Z,28.35
2023-01-20T17:19:31.679Z,28.31
2023-01-20T17:22:02.280Z,28.27
2023-01-20T17:24:36.183Z,28.29
2023-01-20T17:27:06.805Z,28.32
2023-01-20T17:29:37.116Z,28.29
2023-01-20T17:32:07.925Z,28.24
2023-01-20T17:34:38.487Z,28.23
2023-01-20T17:37:08.724Z,28.24
2023-01-20T17:39:38.941Z,28.25
2023-01-20T17:42:10.034Z,28.20
2023-01-20T17:44:40.622Z,28.12
2023-01-20T17:47:10.857Z,28.17
2023-01-20T17:50:00.315Z,28.17
2023-01-20T17:52:30.663Z,28.13
2023-01-20T17:55:01.475Z,28.13
2023-01-20T17:57:33.455Z,28.10
2023-01-20T18:00:06.292Z,28.09
2023-01-20T18:02:37.142Z,28.09
2023-01-20T18:05:07.835Z,28.07
2023-01-20T18:07:38.938Z,28.07
2023-01-20T18:10:09.915Z,28.02
2023-01-20T18:12:40.678Z,28.06
2023-01-20T18:15:12.477Z,27.99
2023-01-20T18:17:44.311Z,27.99
2023-01-20T18:20:16.034Z,27.98
2023-01-20T18:22:51.264Z,27.94
2023-01-20T18:25:21.678Z,27.99
2023-01-20T18:27:51.982Z,27.95
2023-01-20T18:30:22.597Z,27.95
2023-01-20T18:33:11.263Z,28.02
2023-01-20T18:35:43.504Z,27.92
2023-01-20T18:38:13.775Z,27.90
2023-01-20T18:40:44.366Z,27.94
2023-01-20T18:43:14.649Z,27.89
2023-01-20T18:45:45.254Z,27.89
2023-01-20T18:48:15.842Z,27.86
2023-01-20T18:50:46.098Z,27.87
2023-01-20T18:53:17.341Z,27.89
2023-01-20T18:55:47.886Z,27.86
2023-01-20T18:58:18.463Z,27.84
2023-01-20T19:00:49.226Z,27.81
2023-01-20T19:03:20.083Z,27.82
2023-01-20T19:05:50.324Z,27.82
2023-01-20T19:08:22.960Z,27.80
2023-01-20T19:10:53.677Z,27.82
2023-01-20T19:13:24.554Z,27.79
2023-01-20T19:15:55.390Z,27.78
2023-01-20T19:18:26.128Z,27.75
2023-01-20T19:20:56.482Z,27.75
2023-01-20T19:23:27.274Z,27.74
2023-01-20T19:26:08.069Z,27.76
2023-01-20T19:28:39.011Z,27.74
2023-01-20T19:31:11.198Z,27.75
2023-01-20T19:33:41.797Z,27.72
2023-01-20T19:36:15.185Z,27.72
2023-01-20T19:38:45.880Z,27.73
2023-01-20T19:41:18.942Z,27.72
2023-01-20T19:43:55.757Z,27.67
2023-01-20T19:46:28.385Z,27.71
2023-01-20T19:48:59.905Z,27.70
2023-01-20T19:51:32.377Z,27.69
2023-01-20T19:54:03.374Z,27.67
2023-01-20T19:56:35.952Z,27.67
2023-01-20T19:59:10.037Z,27.65
2023-01-20T20:01:41.019Z,27.65
2023-01-20T20:04:13.994Z,27.64
2023-01-20T20:06:48.703Z,27.64
2023-01-20T20:09:21.677Z,27.62
2023-01-20T20:11:52.138Z,27.63
2023-01-20T20:14:23.912Z,27.65
2023-01-20T20:16:54.823Z,27.63
2023-01-20T20:19:27.821Z,27.62
2023-01-20T20:21:59.538Z,27.65
2023-01-20T20:24:30.054Z,27.63
2023-01-20T20:27:00.418Z,27.65
2023-01-20T20:29:31.613Z,27.61
2023-01-20T20:32:02.654Z,27.56
2023-01-20T20:34:34.361Z,27.56
2023-01-20T20:37:04.642Z,27.57
2023-01-20T20:39:35.769Z,27.57
2023-01-20T20:42:06.167Z,27.56
2023-01-20T20:44:36.755Z,27.54
2023-01-20T20:47:07.600Z,27.54
2023-01-20T20:49:37.972Z,27.57
2023-01-20T20:52:11.805Z,27.53
2023-01-20T20:54:42.576Z,27.53
2023-01-20T20:57:13.205Z,27.54
2023-01-20T20:59:58.262Z,27.53
2023-01-20T21:02:29.658Z,27.53
2023-01-20T21:04:59.994Z,27.50
2023-01-20T21:07:30.255Z,27.48
2023-01-20T21:10:00.575Z,27.48
2023-01-20T21:12:30.849Z,27.49
2023-01-20T21:15:01.501Z,27.45
2023-01-20T21:17:32.090Z,27.46
2023-01-20T21:20:05.169Z,27.48
2023-01-20T21:22:35.916Z,27.46
2023-01-20T21:25:07.125Z,27.46
2023-01-20T21:27:40.614Z,27.46
2023-01-20T21:30:12.378Z,27.48
2023-01-20T21:32:43.013Z,27.45
2023-01-20T21:35:13.437Z,27.46
2023-01-20T21:37:44.375Z,27.44
2023-01-20T21:40:15.202Z,27.45
2023-01-20T21:42:46.718Z,27.47
2023-01-20T21:45:17.289Z,27.46
2023-01-20T21:47:47.759Z,27.42
2023-01-20T21:50:36.830Z,27.37
2023-01-20T21:53:07.072Z,27.38
2023-01-20T21:55:38.512Z,27.34
2023-01-20T21:58:11.290Z,27.34
2023-01-20T22:00:44.546Z,27.37
2023-01-20T22:03:15.559Z,27.36
2023-01-20T22:05:46.650Z,27.35
2023-01-20T22:08:19.929Z,27.33
2023-01-20T22:11:00.770Z,27.36
2023-01-20T22:13:31.249Z,27.35
2023-01-20T22:16:05.826Z,27.38
2023-01-20T22:18:36.180Z,27.41
2023-01-20T22:21:07.898Z,27.41
2023-01-20T22:23:38.359Z,27.42
2023-01-20T22:26:11.893Z,27.43
2023-01-20T22:28:42.222Z,27.45
2023-01-20T22:31:24.268Z,27.43
2023-01-20T22:33:59.372Z,27.45
2023-01-20T22:36:29.653Z,27.45
2023-01-20T22:39:00.564Z,27.45
2023-01-20T22:41:30.972Z,27.46
2023-01-20T22:44:01.398Z,27.45
2023-01-20T22:46:32.271Z,27.47
2023-01-20T22:49:02.547Z,27.48
2023-01-20T22:51:33.225Z,27.50
2023-01-20T22:54:08.445Z,27.51
2023-01-20T22:56:40.390Z,27.51
2023-01-20T22:59:14.261Z,27.52
2023-01-20T23:01:45.531Z,27.54
2023-01-20T23:04:16.467Z,27.55
2023-01-20T23:06:46.657Z,27.51
2023-01-20T23:09:17.258Z,27.54
2023-01-20T23:11:49.049Z,27.55
2023-01-20T23:14:39.455Z,27.55
2023-01-20T23:17:09.996Z,27.56
2023-01-20T23:19:40.475Z,27.58
2023-01-20T23:22:11.038Z,27.59
2023-01-20T23:24:41.346Z,27.59
2023-01-20T23:27:11.720Z,27.60
2023-01-20T23:29:42.703Z,27.60
2023-01-20T23:32:13.298Z,27.60
2023-01-20T23:34:43.963Z,27.60
2023-01-20T23:37:14.681Z,27.60
2023-01-20T23:39:44.932Z,27.63
2023-01-20T23:42:16.321Z,27.63
2023-01-20T23:44:48.133Z,27.65
2023-01-20T23:47:18.627Z,27.64
2023-01-20T23:49:49.285Z,27.63
2023-01-20T23:52:21.232Z,27.68
2023-01-20T23:54:51.998Z,27.73
2023-01-20T23:57:23.823Z,27.80
2023-01-20T23:59:54.599Z,27.82
